Darstellungsparameter: Aktuell verwendete Einstellungen:
Skalierung der Graphiken ... ?
xyx+y,   Skalierungsfaktor:      Skalierung: Modus: x, Faktor: 1
Darstellungszeitraum ... ?
Vom - - bis: - -   Zeitraum: 02.12.2021 - 04.12.2021
Min/Max/Avg-Anzeige ... ?
Zeige MMA aktuell
Zeige MMA Monat
Zeige MMA alles
Zeige --A aktuell
Zeige --A Monat
Zeige --A alles
Keine MMA-Anzeige
MMA:
Average (ber die Originaldaten)
MMA-Basis: 02.12.2021 - 04.12.2021
Quicknavigation für Darstellung... ?
Tage:      1T, 2T, 3T, 5T -1T -2T -3T -5T +1T +2T +3T +5T
Wochen: 1W, 2W, 3W -1W -2W -3W +1W +2W +3W
Monate: 1M, 3M, 6M -1M -3M -6M +1M +3M +6M
Jahre:    1J, 3J, 5J, 10J -1J -3J -5J -10J +1J +3J +5J +10J
Nutze für die Darstellung ... ?
Originaldaten oder Mittelwerte auf ...
Stundenbasis Tagesbasis Wochenbasis
Monatsbasis Jahresbasis      Datenbasis: Original-Daten
Darstellen als:
Statistik (Auto) Statistik J:M      Darstellung:
Zur Graphik,    zurück zur Übersicht aller Sensoren.
 
Tabellarische Datenbersicht: ?
 
Sensor: Nr:Datum:Temp:Abs-Feuchte:Windchill:Wind:
Aussen-T/F 1 02-12-2021 00:00:00 5.4 C 6.56 g/m*3 3.2 C 9.7 km/h
2 02-12-2021 00:05:00 5.4 C 6.56 g/m*3 4.06 C 6.4 km/h
3 02-12-2021 00:10:00 5.4 C 6.56 g/m*3 2.58 C 12.9 km/h
4 02-12-2021 00:15:00 5.3 C 6.52 g/m*3 3.08 C 9.7 km/h
5 02-12-2021 00:20:00 5.3 C 6.52 g/m*3 3.08 C 9.7 km/h
6 02-12-2021 00:25:00 5.3 C 6.52 g/m*3 3.94 C 6.4 km/h
7 02-12-2021 00:30:00 5.3 C 6.52 g/m*3 2.75 C 11.3 km/h
8 02-12-2021 00:35:00 5.3 C 6.52 g/m*3 3.46 C 8.1 km/h
9 02-12-2021 00:40:00 5.3 C 6.52 g/m*3 3.94 C 6.4 km/h
10 02-12-2021 00:45:00 5.3 C 6.52 g/m*3 3.08 C 9.7 km/h
11 02-12-2021 00:50:00 5.3 C 6.52 g/m*3 2.75 C 11.3 km/h
12 02-12-2021 00:55:00 5.3 C 6.52 g/m*3 2.46 C 12.9 km/h
13 02-12-2021 01:00:00 5.3 C 6.52 g/m*3 2.75 C 11.3 km/h
14 02-12-2021 01:05:00 5.3 C 6.52 g/m*3 2.75 C 11.3 km/h
15 02-12-2021 01:10:00 5.3 C 6.52 g/m*3 3.46 C 8.1 km/h
16 02-12-2021 01:15:00 5.2 C 6.47 g/m*3 3.34 C 8.1 km/h
17 02-12-2021 01:20:00 5.2 C 6.47 g/m*3 3.34 C 8.1 km/h
18 02-12-2021 01:25:00 5.2 C 6.47 g/m*3 3.82 C 6.4 km/h
19 02-12-2021 01:30:00 5.2 C 6.47 g/m*3 3.34 C 8.1 km/h
20 02-12-2021 01:35:00 5.1 C 6.43 g/m*3 3.71 C 6.4 km/h
21 02-12-2021 01:40:00 5.1 C 6.43 g/m*3 3.71 C 6.4 km/h
22 02-12-2021 01:45:00 5.1 C 6.43 g/m*3 5.1 C 3.2 km/h
23 02-12-2021 01:50:00 5.1 C 6.43 g/m*3 5.1 C 3.2 km/h
24 02-12-2021 01:55:00 4.9 C 6.28 g/m*3 3.48 C 6.4 km/h
25 02-12-2021 02:00:00 4.9 C 6.28 g/m*3 2.27 C 11.3 km/h
Sensor: Nr:Datum:Temp:Abs-Feuchte:Windchill:Wind:
Aussen-T/F 26 02-12-2021 02:05:00 4.8 C 6.24 g/m*3 3.36 C 6.4 km/h
27 02-12-2021 02:10:00 4.8 C 6.24 g/m*3 3.36 C 6.4 km/h
28 02-12-2021 02:15:00 4.8 C 6.24 g/m*3 2.15 C 11.3 km/h
29 02-12-2021 02:20:00 4.7 C 6.19 g/m*3 1.73 C 12.9 km/h
30 02-12-2021 02:25:00 4.7 C 6.19 g/m*3 2.37 C 9.7 km/h
31 02-12-2021 02:30:00 4.6 C 6.15 g/m*3 2.64 C 8.1 km/h
32 02-12-2021 02:35:00 4.6 C 6.15 g/m*3 4.6 C 4.8 km/h
33 02-12-2021 02:40:00 4.6 C 6.15 g/m*3 3.13 C 6.4 km/h
34 02-12-2021 02:45:00 4.6 C 6.15 g/m*3 4.6 C 3.2 km/h
35 02-12-2021 02:50:00 4.5 C 6.11 g/m*3 2.52 C 8.1 km/h
36 02-12-2021 02:55:00 4.5 C 6.11 g/m*3 4.5 C 3.2 km/h
37 02-12-2021 03:00:00 4.4 C 6.14 g/m*3 2.01 C 9.7 km/h
38 02-12-2021 03:05:00 4.5 C 6.18 g/m*3 2.13 C 9.7 km/h
39 02-12-2021 03:10:00 4.5 C 6.18 g/m*3 3.02 C 6.4 km/h
40 02-12-2021 03:15:00 4.5 C 6.18 g/m*3 4.5 C 4.8 km/h
41 02-12-2021 03:20:00 4.5 C 6.18 g/m*3 2.52 C 8.1 km/h
42 02-12-2021 03:25:00 4.5 C 6.18 g/m*3 2.52 C 8.1 km/h
43 02-12-2021 03:30:00 4.5 C 6.18 g/m*3 4.5 C 4.8 km/h
44 02-12-2021 03:35:00 4.4 C 6.14 g/m*3 2.01 C 9.7 km/h
45 02-12-2021 03:40:00 4.5 C 6.18 g/m*3 3.02 C 6.4 km/h
46 02-12-2021 03:45:00 4.5 C 6.18 g/m*3 1.79 C 11.3 km/h
47 02-12-2021 03:50:00 4.6 C 6.22 g/m*3 3.13 C 6.4 km/h
48 02-12-2021 03:55:00 4.6 C 6.22 g/m*3 2.64 C 8.1 km/h
49 02-12-2021 04:00:00 4.6 C 6.22 g/m*3 2.64 C 8.1 km/h
50 02-12-2021 04:05:00 4.6 C 6.22 g/m*3 4.6 C 4.8 km/h
Sensor: Nr:Datum:Temp:Abs-Feuchte:Windchill:Wind:
Aussen-T/F 51 02-12-2021 04:10:00 4.6 C 6.22 g/m*3 2.64 C 8.1 km/h
52 02-12-2021 04:15:00 4.6 C 6.22 g/m*3 2.25 C 9.7 km/h
53 02-12-2021 04:20:00 4.6 C 6.22 g/m*3 2.25 C 9.7 km/h
54 02-12-2021 04:25:00 4.7 C 6.26 g/m*3 2.37 C 9.7 km/h
55 02-12-2021 04:30:00 4.7 C 6.26 g/m*3 2.76 C 8.1 km/h
56 02-12-2021 04:35:00 4.7 C 6.26 g/m*3 2.76 C 8.1 km/h
57 02-12-2021 04:40:00 4.6 C 6.22 g/m*3 2.25 C 9.7 km/h
58 02-12-2021 04:45:00 4.6 C 6.22 g/m*3 3.13 C 6.4 km/h
59 02-12-2021 04:50:00 4.6 C 6.22 g/m*3 2.25 C 9.7 km/h
60 02-12-2021 04:55:00 4.6 C 6.22 g/m*3 2.25 C 9.7 km/h
61 02-12-2021 05:00:00 4.5 C 6.18 g/m*3 4.5 C 4.8 km/h
62 02-12-2021 05:05:00 4.5 C 6.18 g/m*3 2.52 C 8.1 km/h
63 02-12-2021 05:10:00 4.5 C 6.18 g/m*3 2.13 C 9.7 km/h
64 02-12-2021 05:15:00 4.5 C 6.18 g/m*3 4.5 C 3.2 km/h
65 02-12-2021 05:20:00 4.5 C 6.18 g/m*3 3.02 C 6.4 km/h
66 02-12-2021 05:25:00 4.5 C 6.18 g/m*3 3.02 C 6.4 km/h
67 02-12-2021 05:30:00 4.5 C 6.18 g/m*3 4.5 C 4.8 km/h
68 02-12-2021 05:35:00 4.5 C 6.18 g/m*3 2.52 C 8.1 km/h
69 02-12-2021 05:40:00 4.5 C 6.18 g/m*3 2.13 C 9.7 km/h
70 02-12-2021 05:45:00 4.4 C 6.2 g/m*3 2.9 C 6.4 km/h
71 02-12-2021 05:50:00 4.5 C 6.24 g/m*3 3.02 C 6.4 km/h
72 02-12-2021 05:55:00 4.4 C 6.2 g/m*3 4.4 C 4.8 km/h
73 02-12-2021 06:00:00 4.4 C 6.2 g/m*3 2.9 C 6.4 km/h
74 02-12-2021 06:05:00 4.4 C 6.14 g/m*3 4.4 C 3.2 km/h
75 02-12-2021 06:10:00 4.4 C 6.2 g/m*3 4.4 C 4.8 km/h
Sensor: Nr:Datum:Temp:Abs-Feuchte:Windchill:Wind:
Aussen-T/F 76 02-12-2021 06:15:00 4.4 C 6.2 g/m*3 4.4 C 3.2 km/h
77 02-12-2021 06:20:00 4.4 C 6.2 g/m*3 2.4 C 8.1 km/h
78 02-12-2021 06:25:00 4.4 C 6.2 g/m*3 2.9 C 6.4 km/h
79 02-12-2021 06:30:00 4.3 C 6.16 g/m*3 2.78 C 6.4 km/h
80 02-12-2021 06:35:00 4.3 C 6.16 g/m*3 2.29 C 8.1 km/h
81 02-12-2021 06:40:00 4.3 C 6.16 g/m*3 1.89 C 9.7 km/h
82 02-12-2021 06:45:00 4.3 C 6.16 g/m*3 2.78 C 6.4 km/h
83 02-12-2021 06:50:00 4.2 C 6.12 g/m*3 1.12 C 12.9 km/h
84 02-12-2021 06:55:00 4.2 C 6.12 g/m*3 2.67 C 6.4 km/h
85 02-12-2021 07:00:00 4.2 C 6.12 g/m*3 2.67 C 6.4 km/h
86 02-12-2021 07:05:00 4.2 C 6.12 g/m*3 2.67 C 6.4 km/h
87 02-12-2021 07:10:00 4.2 C 6.12 g/m*3 2.17 C 8.1 km/h
88 02-12-2021 07:15:00 4.2 C 6.12 g/m*3 4.2 C 4.8 km/h
89 02-12-2021 07:20:00 4.2 C 6.12 g/m*3 4.2 C 4.8 km/h
90 02-12-2021 07:25:00 4.1 C 6.08 g/m*3 2.55 C 6.4 km/h
91 02-12-2021 07:30:00 4.1 C 6.08 g/m*3 4.1 C 4.8 km/h
92 02-12-2021 07:35:00 4.1 C 6.08 g/m*3 4.1 C 3.2 km/h
93 02-12-2021 07:40:00 4.1 C 6.08 g/m*3 2.55 C 6.4 km/h
94 02-12-2021 07:45:00 4 C 6.04 g/m*3 2.44 C 6.4 km/h
95 02-12-2021 07:50:00 4 C 6.04 g/m*3 1.53 C 9.7 km/h
96 02-12-2021 07:55:00 4.1 C 6.08 g/m*3 2.05 C 8.1 km/h
97 02-12-2021 08:00:00 4.1 C 6.08 g/m*3 1.65 C 9.7 km/h
98 02-12-2021 08:05:00 4 C 6.04 g/m*3 1.93 C 8.1 km/h
99 02-12-2021 08:10:00 4 C 6.04 g/m*3 2.44 C 6.4 km/h
100 02-12-2021 08:15:00 3.9 C 6 g/m*3 2.32 C 6.4 km/h
Sensor: Nr:Datum:Temp:Abs-Feuchte:Windchill:Wind:
Aussen-T/F 101 02-12-2021 08:20:00 3.9 C 6 g/m*3 1.82 C 8.1 km/h
102 02-12-2021 08:25:00 3.9 C 6 g/m*3 3.9 C 4.8 km/h
103 02-12-2021 08:30:00 3.9 C 6 g/m*3 1.82 C 8.1 km/h
104 02-12-2021 08:35:00 3.9 C 6 g/m*3 3.9 C 4.8 km/h
105 02-12-2021 08:40:00 4 C 6.04 g/m*3 4 C 4.8 km/h
106 02-12-2021 08:45:00 4 C 6.04 g/m*3 4 C 4.8 km/h
107 02-12-2021 08:50:00 4 C 6.04 g/m*3 4 C 4.8 km/h
108 02-12-2021 08:55:00 4.1 C 6.08 g/m*3 4.1 C 3.2 km/h
109 02-12-2021 09:00:00 4.1 C 6.08 g/m*3 2.55 C 6.4 km/h
110 02-12-2021 09:05:00 4.1 C 6.08 g/m*3 4.1 C 3.2 km/h
111 02-12-2021 09:10:00 4.1 C 6.08 g/m*3 4.1 C 4.8 km/h
112 02-12-2021 09:15:00 4.1 C 6.08 g/m*3 4.1 C 4.8 km/h
113 02-12-2021 09:20:00 4.1 C 6.08 g/m*3 4.1 C 3.2 km/h
114 02-12-2021 09:25:00 4.1 C 6.08 g/m*3 4.1 C 4.8 km/h
115 02-12-2021 09:30:00 4.2 C 6.12 g/m*3 4.2 C 4.8 km/h
116 02-12-2021 09:35:00 4.2 C 6.12 g/m*3 4.2 C 3.2 km/h
117 02-12-2021 09:40:00 4.1 C 6.02 g/m*3 1.31 C 11.3 km/h
118 02-12-2021 09:45:00 4 C 5.98 g/m*3 1.18 C 11.3 km/h
119 02-12-2021 09:50:00 4 C 5.98 g/m*3 1.18 C 11.3 km/h
120 02-12-2021 09:55:00 3.9 C 5.94 g/m*3 2.32 C 6.4 km/h
121 02-12-2021 10:00:00 3.9 C 5.94 g/m*3 1.41 C 9.7 km/h
122 02-12-2021 10:05:00 3.8 C 5.9 g/m*3 3.8 C 3.2 km/h
123 02-12-2021 10:10:00 3.8 C 5.9 g/m*3 3.8 C 4.8 km/h
124 02-12-2021 10:15:00 3.8 C 5.9 g/m*3 3.8 C 4.8 km/h
125 02-12-2021 10:20:00 3.8 C 5.9 g/m*3 2.21 C 6.4 km/h
Sensor: Nr:Datum:Temp:Abs-Feuchte:Windchill:Wind:
Aussen-T/F 126 02-12-2021 10:25:00 3.8 C 5.9 g/m*3 1.7 C 8.1 km/h
127 02-12-2021 10:30:00 3.9 C 5.94 g/m*3 2.32 C 6.4 km/h
128 02-12-2021 10:35:00 4 C 5.98 g/m*3 1.93 C 8.1 km/h
129 02-12-2021 10:40:00 4.1 C 6.02 g/m*3 2.55 C 6.4 km/h
130 02-12-2021 10:45:00 4.2 C 6.06 g/m*3 2.67 C 6.4 km/h
131 02-12-2021 10:50:00 4.2 C 6.06 g/m*3 4.2 C 4.8 km/h
132 02-12-2021 10:55:00 4.2 C 6.06 g/m*3 4.2 C 0 km/h
133 02-12-2021 11:00:00 4.2 C 6.06 g/m*3 1.43 C 11.3 km/h
134 02-12-2021 11:05:00 4.1 C 5.95 g/m*3 1 C 12.9 km/h
135 02-12-2021 11:10:00 3.8 C 5.77 g/m*3 0.1 C 16.1 km/h
136 02-12-2021 11:15:00 3.7 C 5.8 g/m*3 -0.03 C 16.1 km/h
137 02-12-2021 11:20:00 3.7 C 5.8 g/m*3 0.51 C 12.9 km/h
138 02-12-2021 11:25:00 3.7 C 5.8 g/m*3 2.09 C 6.4 km/h
139 02-12-2021 11:30:00 3.7 C 5.8 g/m*3 2.09 C 6.4 km/h
140 02-12-2021 11:35:00 3.7 C 5.8 g/m*3 1.18 C 9.7 km/h
141 02-12-2021 11:40:00 3.8 C 5.83 g/m*3 1.7 C 8.1 km/h
142 02-12-2021 11:45:00 3.8 C 5.83 g/m*3 1.7 C 8.1 km/h
143 02-12-2021 11:50:00 3.8 C 5.83 g/m*3 3.8 C 1.6 km/h
144 02-12-2021 11:55:00 3.8 C 5.83 g/m*3 2.21 C 6.4 km/h
145 02-12-2021 12:00:00 3.8 C 5.83 g/m*3 2.21 C 6.4 km/h
146 02-12-2021 12:05:00 3.8 C 5.83 g/m*3 1.29 C 9.7 km/h
147 02-12-2021 12:10:00 3.8 C 5.83 g/m*3 1.29 C 9.7 km/h
148 02-12-2021 12:15:00 3.9 C 5.87 g/m*3 1.82 C 8.1 km/h
149 02-12-2021 12:20:00 4.1 C 5.95 g/m*3 2.55 C 6.4 km/h
150 02-12-2021 12:25:00 4.2 C 5.99 g/m*3 1.43 C 11.3 km/h
Sensor: Nr:Datum:Temp:Abs-Feuchte:Windchill:Wind:
Aussen-T/F 151 02-12-2021 12:30:00 4.2 C 5.99 g/m*3 4.2 C 3.2 km/h
152 02-12-2021 12:35:00 4.2 C 5.93 g/m*3 1.77 C 9.7 km/h
153 02-12-2021 12:40:00 4.2 C 5.93 g/m*3 1.77 C 9.7 km/h
154 02-12-2021 12:45:00 4.3 C 5.97 g/m*3 1.89 C 9.7 km/h
155 02-12-2021 12:50:00 4.3 C 5.97 g/m*3 2.29 C 8.1 km/h
156 02-12-2021 12:55:00 4.3 C 5.9 g/m*3 1.24 C 12.9 km/h
157 02-12-2021 13:00:00 4.2 C 5.86 g/m*3 1.43 C 11.3 km/h
158 02-12-2021 13:05:00 4.2 C 5.86 g/m*3 2.67 C 6.4 km/h
159 02-12-2021 13:10:00 4.1 C 5.76 g/m*3 1.31 C 11.3 km/h
160 02-12-2021 13:15:00 3.9 C 5.68 g/m*3 0.75 C 12.9 km/h
161 02-12-2021 13:20:00 3.9 C 5.75 g/m*3 1.82 C 8.1 km/h
162 02-12-2021 13:25:00 4 C 5.79 g/m*3 0.88 C 12.9 km/h
163 02-12-2021 13:30:00 4.1 C 5.76 g/m*3 1.31 C 11.3 km/h
164 02-12-2021 13:35:00 4.1 C 5.7 g/m*3 1.31 C 11.3 km/h
165 02-12-2021 13:40:00 4.3 C 5.77 g/m*3 0.97 C 14.5 km/h
166 02-12-2021 13:45:00 4.4 C 5.81 g/m*3 2.4 C 8.1 km/h
167 02-12-2021 13:50:00 4.4 C 5.75 g/m*3 1.09 C 14.5 km/h
168 02-12-2021 13:55:00 4.4 C 5.68 g/m*3 1.09 C 14.5 km/h
169 02-12-2021 14:00:00 4.3 C 5.58 g/m*3 1.55 C 11.3 km/h
170 02-12-2021 14:05:00 4.3 C 5.64 g/m*3 2.78 C 6.4 km/h
171 02-12-2021 14:10:00 4.2 C 5.61 g/m*3 4.2 C 4.8 km/h
172 02-12-2021 14:15:00 4.2 C 5.61 g/m*3 4.2 C 4.8 km/h
173 02-12-2021 14:20:00 4.3 C 5.64 g/m*3 4.3 C 3.2 km/h
174 02-12-2021 14:25:00 4.3 C 5.64 g/m*3 1.89 C 9.7 km/h
175 02-12-2021 14:30:00 4.3 C 5.64 g/m*3 2.78 C 6.4 km/h
Sensor: Nr:Datum:Temp:Abs-Feuchte:Windchill:Wind:
Aussen-T/F 176 02-12-2021 14:35:00 4.3 C 5.58 g/m*3 2.29 C 8.1 km/h
177 02-12-2021 14:40:00 4.3 C 5.58 g/m*3 0.97 C 14.5 km/h
178 02-12-2021 14:45:00 4.3 C 5.58 g/m*3 2.78 C 6.4 km/h
179 02-12-2021 14:50:00 4.2 C 5.48 g/m*3 0.84 C 14.5 km/h
180 02-12-2021 14:55:00 4.1 C 5.44 g/m*3 1 C 12.9 km/h
181 02-12-2021 15:00:00 4.1 C 5.44 g/m*3 0.72 C 14.5 km/h
182 02-12-2021 15:05:00 4 C 5.4 g/m*3 0.88 C 12.9 km/h
183 02-12-2021 15:10:00 4 C 5.4 g/m*3 0.88 C 12.9 km/h
184 02-12-2021 15:15:00 4.1 C 5.38 g/m*3 4.1 C 4.8 km/h
185 02-12-2021 15:20:00 4.1 C 5.44 g/m*3 2.55 C 6.4 km/h
186 02-12-2021 15:25:00 4.2 C 5.48 g/m*3 2.17 C 8.1 km/h
187 02-12-2021 15:30:00 4.2 C 5.41 g/m*3 1.77 C 9.7 km/h
188 02-12-2021 15:35:00 4.2 C 5.41 g/m*3 1.77 C 9.7 km/h
189 02-12-2021 15:40:00 4.2 C 5.35 g/m*3 2.17 C 8.1 km/h
190 02-12-2021 15:45:00 4.3 C 5.38 g/m*3 1.89 C 9.7 km/h
191 02-12-2021 15:50:00 4.3 C 5.38 g/m*3 2.78 C 6.4 km/h
192 02-12-2021 15:55:00 4.4 C 5.48 g/m*3 1.67 C 11.3 km/h
193 02-12-2021 16:00:00 4.3 C 5.45 g/m*3 2.29 C 8.1 km/h
194 02-12-2021 16:05:00 4.2 C 5.41 g/m*3 1.43 C 11.3 km/h
195 02-12-2021 16:10:00 4.1 C 5.38 g/m*3 0.47 C 16.1 km/h
196 02-12-2021 16:15:00 4.1 C 5.38 g/m*3 1 C 12.9 km/h
197 02-12-2021 16:20:00 4.1 C 5.38 g/m*3 0.24 C 17.7 km/h
198 02-12-2021 16:25:00 3.9 C 5.31 g/m*3 -0.01 C 17.7 km/h
199 02-12-2021 16:30:00 3.9 C 5.37 g/m*3 1.82 C 8.1 km/h
200 02-12-2021 16:35:00 3.9 C 5.37 g/m*3 -0.43 C 20.9 km/h
Sensor: Nr:Datum:Temp:Abs-Feuchte:Windchill:Wind:
Aussen-T/F 201 02-12-2021 16:40:00 3.8 C 5.33 g/m*3 0.63 C 12.9 km/h
202 02-12-2021 16:45:00 3.8 C 5.4 g/m*3 0.63 C 12.9 km/h
203 02-12-2021 16:50:00 3.7 C 5.36 g/m*3 -0.03 C 16.1 km/h
204 02-12-2021 16:55:00 3.6 C 5.32 g/m*3 1.98 C 6.4 km/h
205 02-12-2021 17:00:00 3.6 C 5.39 g/m*3 3.6 C 1.6 km/h
206 02-12-2021 17:05:00 3.6 C 5.39 g/m*3 1.98 C 6.4 km/h
207 02-12-2021 17:10:00 3.5 C 5.35 g/m*3 3.5 C 3.2 km/h
208 02-12-2021 17:15:00 3.4 C 5.37 g/m*3 3.4 C 4.8 km/h
209 02-12-2021 17:20:00 3.4 C 5.37 g/m*3 3.4 C 4.8 km/h
210 02-12-2021 17:25:00 3.4 C 5.37 g/m*3 3.4 C 4.8 km/h
211 02-12-2021 17:30:00 3.4 C 5.37 g/m*3 3.4 C 3.2 km/h
212 02-12-2021 17:35:00 3.4 C 5.44 g/m*3 3.4 C 3.2 km/h
213 02-12-2021 17:40:00 3.4 C 5.44 g/m*3 3.4 C 3.2 km/h
214 02-12-2021 17:45:00 3.3 C 5.4 g/m*3 3.3 C 4.8 km/h
215 02-12-2021 17:50:00 3.3 C 5.4 g/m*3 3.3 C 1.6 km/h
216 02-12-2021 17:55:00 3.3 C 5.4 g/m*3 1.63 C 6.4 km/h
217 02-12-2021 18:00:00 3.3 C 5.4 g/m*3 1.63 C 6.4 km/h
218 02-12-2021 18:05:00 3.3 C 5.4 g/m*3 3.3 C 4.8 km/h
219 02-12-2021 18:10:00 3.3 C 5.4 g/m*3 0.7 C 9.7 km/h
220 02-12-2021 18:15:00 3.4 C 5.37 g/m*3 1.23 C 8.1 km/h
221 02-12-2021 18:20:00 3.5 C 5.41 g/m*3 3.5 C 1.6 km/h
222 02-12-2021 18:25:00 3.6 C 5.45 g/m*3 1.06 C 9.7 km/h
223 02-12-2021 18:30:00 3.5 C 5.41 g/m*3 1.86 C 6.4 km/h
224 02-12-2021 18:35:00 3.5 C 5.41 g/m*3 3.5 C 1.6 km/h
225 02-12-2021 18:40:00 3.5 C 5.41 g/m*3 3.5 C 4.8 km/h
Sensor: Nr:Datum:Temp:Abs-Feuchte:Windchill:Wind:
Aussen-T/F 226 02-12-2021 18:45:00 3.5 C 5.41 g/m*3 1.86 C 6.4 km/h
227 02-12-2021 18:50:00 3.4 C 5.37 g/m*3 3.4 C 4.8 km/h
228 02-12-2021 18:55:00 3.4 C 5.37 g/m*3 1.23 C 8.1 km/h
229 02-12-2021 19:00:00 3.5 C 5.41 g/m*3 1.34 C 8.1 km/h
230 02-12-2021 19:05:00 3.6 C 5.39 g/m*3 1.06 C 9.7 km/h
231 02-12-2021 19:10:00 3.6 C 5.39 g/m*3 1.98 C 6.4 km/h
232 02-12-2021 19:15:00 3.7 C 5.36 g/m*3 0.51 C 12.9 km/h
233 02-12-2021 19:20:00 3.7 C 5.36 g/m*3 0.23 C 14.5 km/h
234 02-12-2021 19:25:00 3.7 C 5.36 g/m*3 -0.03 C 16.1 km/h
235 02-12-2021 19:30:00 3.7 C 5.36 g/m*3 0.23 C 14.5 km/h
236 02-12-2021 19:35:00 3.7 C 5.36 g/m*3 0.23 C 14.5 km/h
237 02-12-2021 19:40:00 3.7 C 5.3 g/m*3 -0.48 C 19.3 km/h
238 02-12-2021 19:45:00 3.7 C 5.3 g/m*3 -0.03 C 16.1 km/h
239 02-12-2021 19:50:00 3.7 C 5.36 g/m*3 0.51 C 12.9 km/h
240 02-12-2021 19:55:00 3.6 C 5.32 g/m*3 0.11 C 14.5 km/h
241 02-12-2021 20:00:00 3.4 C 5.25 g/m*3 0.82 C 9.7 km/h
242 02-12-2021 20:05:00 3.4 C 5.31 g/m*3 3.4 C 4.8 km/h
243 02-12-2021 20:10:00 3.4 C 5.31 g/m*3 3.4 C 4.8 km/h
244 02-12-2021 20:15:00 3.4 C 5.31 g/m*3 -0.4 C 16.1 km/h
245 02-12-2021 20:20:00 3.4 C 5.31 g/m*3 1.75 C 6.4 km/h
246 02-12-2021 20:25:00 3.4 C 5.37 g/m*3 1.23 C 8.1 km/h
247 02-12-2021 20:30:00 3.4 C 5.31 g/m*3 1.23 C 8.1 km/h
248 02-12-2021 20:35:00 3.4 C 5.31 g/m*3 0.14 C 12.9 km/h
249 02-12-2021 20:40:00 3.4 C 5.31 g/m*3 0.82 C 9.7 km/h
250 02-12-2021 20:45:00 3.4 C 5.37 g/m*3 0.82 C 9.7 km/h
Sensor: Nr:Datum:Temp:Abs-Feuchte:Windchill:Wind:
Aussen-T/F 251 02-12-2021 20:50:00 3.4 C 5.44 g/m*3 3.4 C 4.8 km/h
252 02-12-2021 20:55:00 3.4 C 5.44 g/m*3 3.4 C 4.8 km/h
253 02-12-2021 21:00:00 3.3 C 5.4 g/m*3 3.3 C 0 km/h
254 02-12-2021 21:05:00 3.3 C 5.4 g/m*3 3.3 C 1.6 km/h
255 02-12-2021 21:10:00 3.3 C 5.46 g/m*3 3.3 C 3.2 km/h
256 02-12-2021 21:15:00 3.2 C 5.42 g/m*3 3.2 C 0 km/h
257 02-12-2021 21:20:00 3.2 C 5.42 g/m*3 3.2 C 0 km/h
258 02-12-2021 21:25:00 3.2 C 5.42 g/m*3 3.2 C 0 km/h
259 02-12-2021 21:30:00 3.1 C 5.39 g/m*3 3.1 C 0 km/h
260 02-12-2021 21:35:00 3.1 C 5.39 g/m*3 3.1 C 0 km/h
261 02-12-2021 21:40:00 3.1 C 5.39 g/m*3 3.1 C 4.8 km/h
262 02-12-2021 21:45:00 3 C 5.35 g/m*3 3 C 0 km/h
263 02-12-2021 21:50:00 2.9 C 5.32 g/m*3 2.9 C 0 km/h
264 02-12-2021 21:55:00 2.9 C 5.32 g/m*3 2.9 C 1.6 km/h
265 02-12-2021 22:00:00 2.8 C 5.28 g/m*3 2.8 C 3.2 km/h
266 02-12-2021 22:05:00 2.8 C 5.28 g/m*3 2.8 C 4.8 km/h
267 02-12-2021 22:10:00 2.8 C 5.28 g/m*3 2.8 C 3.2 km/h
268 02-12-2021 22:15:00 2.8 C 5.28 g/m*3 2.8 C 4.8 km/h
269 02-12-2021 22:20:00 2.8 C 5.28 g/m*3 2.8 C 1.6 km/h
270 02-12-2021 22:25:00 2.8 C 5.28 g/m*3 2.8 C 0 km/h
271 02-12-2021 22:30:00 2.8 C 5.28 g/m*3 2.8 C 1.6 km/h
272 02-12-2021 22:35:00 2.7 C 5.24 g/m*3 2.7 C 0 km/h
273 02-12-2021 22:40:00 2.7 C 5.24 g/m*3 2.7 C 0 km/h
274 02-12-2021 22:45:00 2.7 C 5.24 g/m*3 2.7 C 3.2 km/h
275 02-12-2021 22:50:00 2.7 C 5.24 g/m*3 2.7 C 0 km/h
Sensor: Nr:Datum:Temp:Abs-Feuchte:Windchill:Wind:
Aussen-T/F 276 02-12-2021 22:55:00 2.7 C 5.24 g/m*3 2.7 C 0 km/h
277 02-12-2021 23:00:00 2.6 C 5.15 g/m*3 2.6 C 0 km/h
278 02-12-2021 23:05:00 2.4 C 5.08 g/m*3 2.4 C 0 km/h
279 02-12-2021 23:10:00 2.3 C 5.1 g/m*3 2.3 C 0 km/h
280 02-12-2021 23:15:00 2.3 C 5.1 g/m*3 2.3 C 0 km/h
281 02-12-2021 23:20:00 2.2 C 5.07 g/m*3 2.2 C 1.6 km/h
282 02-12-2021 23:25:00 2.2 C 5.07 g/m*3 2.2 C 0 km/h
283 02-12-2021 23:30:00 2.1 C 5.04 g/m*3 2.1 C 3.2 km/h
284 02-12-2021 23:35:00 2.1 C 5.04 g/m*3 2.1 C 3.2 km/h
285 02-12-2021 23:40:00 1.9 C 4.97 g/m*3 0.01 C 6.4 km/h
286 02-12-2021 23:45:00 1.9 C 4.97 g/m*3 1.9 C 4.8 km/h
287 02-12-2021 23:50:00 1.8 C 4.93 g/m*3 1.8 C 3.2 km/h
288 02-12-2021 23:55:00 1.7 C 4.95 g/m*3 1.7 C 4.8 km/h
289 03-12-2021 00:00:00 1.6 C 4.92 g/m*3 1.6 C 3.2 km/h
290 03-12-2021 00:05:00 1.6 C 4.92 g/m*3 1.6 C 4.8 km/h
291 03-12-2021 00:10:00 1.6 C 4.97 g/m*3 -0.89 C 8.1 km/h
292 03-12-2021 00:15:00 1.7 C 5.01 g/m*3 1.7 C 0 km/h
293 03-12-2021 00:20:00 1.7 C 5.01 g/m*3 1.7 C 0 km/h
294 03-12-2021 00:25:00 1.7 C 5.01 g/m*3 1.7 C 1.6 km/h
295 03-12-2021 00:30:00 1.7 C 5.01 g/m*3 1.7 C 0 km/h
296 03-12-2021 00:35:00 1.6 C 4.92 g/m*3 1.6 C 1.6 km/h
297 03-12-2021 00:40:00 1.5 C 4.89 g/m*3 1.5 C 3.2 km/h
298 03-12-2021 00:45:00 1.4 C 4.85 g/m*3 1.4 C 1.6 km/h
299 03-12-2021 00:50:00 1.4 C 4.91 g/m*3 1.4 C 1.6 km/h
300 03-12-2021 00:55:00 1.4 C 4.91 g/m*3 1.4 C 0 km/h
Sensor: Nr:Datum:Temp:Abs-Feuchte:Windchill:Wind:
Aussen-T/F 301 03-12-2021 01:00:00 1.4 C 4.91 g/m*3 1.4 C 0 km/h
302 03-12-2021 01:05:00 1.4 C 4.91 g/m*3 1.4 C 3.2 km/h
303 03-12-2021 01:10:00 1.3 C 4.87 g/m*3 1.3 C 0 km/h
304 03-12-2021 01:15:00 1.3 C 4.87 g/m*3 1.3 C 3.2 km/h
305 03-12-2021 01:20:00 1.2 C 4.84 g/m*3 1.2 C 1.6 km/h
306 03-12-2021 01:25:00 1.2 C 4.89 g/m*3 1.2 C 0 km/h
307 03-12-2021 01:30:00 1.3 C 4.93 g/m*3 1.3 C 0 km/h
308 03-12-2021 01:35:00 1.3 C 4.93 g/m*3 1.3 C 0 km/h
309 03-12-2021 01:40:00 1.3 C 4.93 g/m*3 1.3 C 0 km/h
310 03-12-2021 01:45:00 1.4 C 4.96 g/m*3 -1.12 C 8.1 km/h
311 03-12-2021 01:50:00 1.4 C 4.96 g/m*3 1.4 C 1.6 km/h
312 03-12-2021 01:55:00 1.4 C 4.96 g/m*3 1.4 C 1.6 km/h
313 03-12-2021 02:00:00 1.3 C 4.93 g/m*3 1.3 C 4.8 km/h
314 03-12-2021 02:05:00 1.3 C 4.93 g/m*3 1.3 C 0 km/h
315 03-12-2021 02:10:00 1.3 C 4.93 g/m*3 1.3 C 3.2 km/h
316 03-12-2021 02:15:00 1.3 C 4.93 g/m*3 1.3 C 1.6 km/h
317 03-12-2021 02:20:00 1.2 C 4.89 g/m*3 1.2 C 0 km/h
318 03-12-2021 02:25:00 1.2 C 4.89 g/m*3 1.2 C 1.6 km/h
319 03-12-2021 02:30:00 1.2 C 4.89 g/m*3 1.2 C 0 km/h
320 03-12-2021 02:35:00 1.2 C 4.89 g/m*3 1.2 C 1.6 km/h
321 03-12-2021 02:40:00 1.2 C 4.89 g/m*3 -0.8 C 6.4 km/h
322 03-12-2021 02:45:00 1.2 C 4.95 g/m*3 1.2 C 3.2 km/h
323 03-12-2021 02:50:00 1.3 C 4.98 g/m*3 -0.68 C 6.4 km/h
324 03-12-2021 02:55:00 1.3 C 4.93 g/m*3 -0.68 C 6.4 km/h
325 03-12-2021 03:00:00 1.3 C 4.93 g/m*3 -0.68 C 6.4 km/h
Sensor: Nr:Datum:Temp:Abs-Feuchte:Windchill:Wind:
Aussen-T/F 326 03-12-2021 03:05:00 1.3 C 4.87 g/m*3 -0.68 C 6.4 km/h
327 03-12-2021 03:10:00 1.3 C 4.87 g/m*3 1.3 C 4.8 km/h
328 03-12-2021 03:15:00 1.2 C 4.79 g/m*3 -2.19 C 11.3 km/h
329 03-12-2021 03:20:00 1.1 C 4.81 g/m*3 -2.31 C 11.3 km/h
330 03-12-2021 03:25:00 0.9 C 4.69 g/m*3 0.9 C 4.8 km/h
331 03-12-2021 03:30:00 0.8 C 4.66 g/m*3 -1.26 C 6.4 km/h
332 03-12-2021 03:35:00 0.7 C 4.63 g/m*3 0.7 C 4.8 km/h
333 03-12-2021 03:40:00 0.6 C 4.6 g/m*3 -1.49 C 6.4 km/h
334 03-12-2021 03:45:00 0.5 C 4.61 g/m*3 -1.6 C 6.4 km/h
335 03-12-2021 03:50:00 0.4 C 4.58 g/m*3 -2.76 C 9.7 km/h
336 03-12-2021 03:55:00 0.4 C 4.58 g/m*3 0.4 C 3.2 km/h
337 03-12-2021 04:00:00 0.3 C 4.55 g/m*3 0.3 C 3.2 km/h
338 03-12-2021 04:05:00 0.2 C 4.52 g/m*3 0.2 C 4.8 km/h
339 03-12-2021 04:10:00 0.2 C 4.52 g/m*3 -2.53 C 8.1 km/h
340 03-12-2021 04:15:00 0.2 C 4.57 g/m*3 -3 C 9.7 km/h
341 03-12-2021 04:20:00 0.2 C 4.57 g/m*3 0.2 C 4.8 km/h
342 03-12-2021 04:25:00 0.2 C 4.57 g/m*3 0.2 C 4.8 km/h
343 03-12-2021 04:30:00 0.1 C 4.54 g/m*3 0.1 C 1.6 km/h
344 03-12-2021 04:35:00 0.1 C 4.54 g/m*3 0.1 C 1.6 km/h
345 03-12-2021 04:40:00 0 C 4.51 g/m*3 0 C 4.8 km/h
346 03-12-2021 04:45:00 -0.1 C 4.47 g/m*3 -0.1 C 4.8 km/h
347 03-12-2021 04:50:00 -0.1 C 4.47 g/m*3 -0.1 C 4.8 km/h
348 03-12-2021 04:55:00 -0.1 C 4.47 g/m*3 -0.1 C 4.8 km/h
349 03-12-2021 05:00:00 -0.2 C 4.44 g/m*3 -0.2 C 4.8 km/h
350 03-12-2021 05:05:00 -0.2 C 4.44 g/m*3 -3 C 8.1 km/h
Sensor: Nr:Datum:Temp:Abs-Feuchte:Windchill:Wind:
Aussen-T/F 351 03-12-2021 05:10:00 -0.1 C 4.52 g/m*3 -2.3 C 6.4 km/h
352 03-12-2021 05:15:00 0 C 4.55 g/m*3 0 C 3.2 km/h
353 03-12-2021 05:20:00 0.1 C 4.59 g/m*3 0.1 C 1.6 km/h
354 03-12-2021 05:25:00 0.1 C 4.59 g/m*3 0.1 C 1.6 km/h
355 03-12-2021 05:30:00 0.1 C 4.59 g/m*3 0.1 C 1.6 km/h
356 03-12-2021 05:35:00 0.2 C 4.62 g/m*3 0.2 C 1.6 km/h
357 03-12-2021 05:40:00 0.3 C 4.65 g/m*3 0.3 C 1.6 km/h
358 03-12-2021 05:45:00 0.3 C 4.65 g/m*3 0.3 C 0 km/h
359 03-12-2021 05:50:00 0.4 C 4.68 g/m*3 0.4 C 0 km/h
360 03-12-2021 05:55:00 0.4 C 4.68 g/m*3 0.4 C 0 km/h
361 03-12-2021 06:00:00 0.4 C 4.68 g/m*3 0.4 C 0 km/h
362 03-12-2021 06:05:00 0.4 C 4.68 g/m*3 0.4 C 0 km/h
363 03-12-2021 06:10:00 0.3 C 4.65 g/m*3 0.3 C 0 km/h
364 03-12-2021 06:15:00 0.3 C 4.65 g/m*3 0.3 C 0 km/h
365 03-12-2021 06:20:00 0.3 C 4.65 g/m*3 0.3 C 1.6 km/h
366 03-12-2021 06:25:00 0.2 C 4.57 g/m*3 0.2 C 1.6 km/h
367 03-12-2021 06:30:00 0.1 C 4.54 g/m*3 0.1 C 1.6 km/h
368 03-12-2021 06:35:00 0.1 C 4.59 g/m*3 0.1 C 0 km/h
369 03-12-2021 06:40:00 0.1 C 4.59 g/m*3 0.1 C 1.6 km/h
370 03-12-2021 06:45:00 0.1 C 4.59 g/m*3 0.1 C 1.6 km/h
371 03-12-2021 06:50:00 0.1 C 4.59 g/m*3 0.1 C 0 km/h
372 03-12-2021 06:55:00 0.1 C 4.59 g/m*3 0.1 C 1.6 km/h
373 03-12-2021 07:00:00 0 C 4.55 g/m*3 0 C 1.6 km/h
374 03-12-2021 07:05:00 0 C 4.55 g/m*3 0 C 3.2 km/h
375 03-12-2021 07:10:00 0.1 C 4.59 g/m*3 0.1 C 1.6 km/h
Sensor: Nr:Datum:Temp:Abs-Feuchte:Windchill:Wind:
Aussen-T/F 376 03-12-2021 07:15:00 0.1 C 4.59 g/m*3 0.1 C 3.2 km/h
377 03-12-2021 07:20:00 0.3 C 4.7 g/m*3 -2.88 C 9.7 km/h
378 03-12-2021 07:25:00 0.4 C 4.73 g/m*3 0.4 C 1.6 km/h
379 03-12-2021 07:30:00 0.6 C 4.8 g/m*3 0.6 C 1.6 km/h
380 03-12-2021 07:35:00 0.7 C 4.83 g/m*3 0.7 C 1.6 km/h
381 03-12-2021 07:40:00 0.8 C 4.86 g/m*3 0.8 C 3.2 km/h
382 03-12-2021 07:45:00 0.9 C 4.9 g/m*3 0.9 C 4.8 km/h
383 03-12-2021 07:50:00 1 C 4.93 g/m*3 1 C 3.2 km/h
384 03-12-2021 07:55:00 1.2 C 5 g/m*3 -1.36 C 8.1 km/h
385 03-12-2021 08:00:00 1.2 C 5 g/m*3 1.2 C 4.8 km/h
386 03-12-2021 08:05:00 1.3 C 5.03 g/m*3 1.3 C 3.2 km/h
387 03-12-2021 08:10:00 1.3 C 5.03 g/m*3 1.3 C 3.2 km/h
388 03-12-2021 08:15:00 1.3 C 5.03 g/m*3 -1.24 C 8.1 km/h
389 03-12-2021 08:20:00 1.4 C 5.01 g/m*3 -1.12 C 8.1 km/h
390 03-12-2021 08:25:00 1.5 C 5.05 g/m*3 -0.45 C 6.4 km/h
391 03-12-2021 08:30:00 1.6 C 5.08 g/m*3 -0.89 C 8.1 km/h
392 03-12-2021 08:35:00 1.7 C 5.12 g/m*3 -0.77 C 8.1 km/h
393 03-12-2021 08:40:00 1.8 C 5.1 g/m*3 -1.47 C 11.3 km/h
394 03-12-2021 08:45:00 1.9 C 5.13 g/m*3 -0.54 C 8.1 km/h
395 03-12-2021 08:50:00 1.9 C 5.13 g/m*3 -0.54 C 8.1 km/h
396 03-12-2021 08:55:00 2 C 5.11 g/m*3 0.13 C 6.4 km/h
397 03-12-2021 09:00:00 2.1 C 5.15 g/m*3 2.1 C 4.8 km/h
398 03-12-2021 09:05:00 2.1 C 5.15 g/m*3 -0.3 C 8.1 km/h
399 03-12-2021 09:10:00 2.1 C 5.15 g/m*3 -0.73 C 9.7 km/h
400 03-12-2021 09:15:00 2.1 C 5.15 g/m*3 -0.73 C 9.7 km/h
Sensor: Nr:Datum:Temp:Abs-Feuchte:Windchill:Wind:
Aussen-T/F 401 03-12-2021 09:20:00 2.2 C 5.13 g/m*3 -1.62 C 14.5 km/h
402 03-12-2021 09:25:00 2.3 C 5.16 g/m*3 -0.87 C 11.3 km/h
403 03-12-2021 09:30:00 2.3 C 5.1 g/m*3 2.3 C 4.8 km/h
404 03-12-2021 09:35:00 2.3 C 5.1 g/m*3 -0.07 C 8.1 km/h
405 03-12-2021 09:40:00 2.4 C 5.14 g/m*3 0.59 C 6.4 km/h
406 03-12-2021 09:45:00 2.5 C 5.12 g/m*3 0.71 C 6.4 km/h
407 03-12-2021 09:50:00 2.6 C 5.09 g/m*3 -0.5 C 11.3 km/h
408 03-12-2021 09:55:00 2.7 C 5.13 g/m*3 -0.38 C 11.3 km/h
409 03-12-2021 10:00:00 2.8 C 5.16 g/m*3 0.52 C 8.1 km/h
410 03-12-2021 10:05:00 2.9 C 5.14 g/m*3 -0.14 C 11.3 km/h
411 03-12-2021 10:10:00 2.9 C 5.14 g/m*3 -0.14 C 11.3 km/h
412 03-12-2021 10:15:00 3 C 5.17 g/m*3 -0.34 C 12.9 km/h
413 03-12-2021 10:20:00 3.1 C 5.21 g/m*3 -0.22 C 12.9 km/h
414 03-12-2021 10:25:00 3.1 C 5.15 g/m*3 -0.51 C 14.5 km/h
415 03-12-2021 10:30:00 3.1 C 5.15 g/m*3 -1.64 C 22.5 km/h
416 03-12-2021 10:35:00 3.1 C 5.21 g/m*3 -0.22 C 12.9 km/h
417 03-12-2021 10:40:00 3.1 C 5.15 g/m*3 0.46 C 9.7 km/h
418 03-12-2021 10:45:00 3.2 C 5.18 g/m*3 -0.39 C 14.5 km/h
419 03-12-2021 10:50:00 3.2 C 5.18 g/m*3 -0.39 C 14.5 km/h
420 03-12-2021 10:55:00 3.3 C 5.16 g/m*3 -0.26 C 14.5 km/h
421 03-12-2021 11:00:00 3.3 C 5.16 g/m*3 0.34 C 11.3 km/h
422 03-12-2021 11:05:00 3.4 C 5.19 g/m*3 0.46 C 11.3 km/h
423 03-12-2021 11:10:00 3.4 C 5.19 g/m*3 0.46 C 11.3 km/h
424 03-12-2021 11:15:00 3.5 C 5.23 g/m*3 -0.02 C 14.5 km/h
425 03-12-2021 11:20:00 3.6 C 5.2 g/m*3 0.11 C 14.5 km/h
Sensor: Nr:Datum:Temp:Abs-Feuchte:Windchill:Wind:
Aussen-T/F 426 03-12-2021 11:25:00 3.6 C 5.2 g/m*3 0.7 C 11.3 km/h
427 03-12-2021 11:30:00 3.7 C 5.23 g/m*3 1.18 C 9.7 km/h
428 03-12-2021 11:35:00 3.7 C 5.17 g/m*3 -0.03 C 16.1 km/h
429 03-12-2021 11:40:00 3.7 C 5.17 g/m*3 0.51 C 12.9 km/h
430 03-12-2021 11:45:00 3.7 C 5.17 g/m*3 -0.48 C 19.3 km/h
431 03-12-2021 11:50:00 3.7 C 5.17 g/m*3 -0.03 C 16.1 km/h
432 03-12-2021 11:55:00 3.7 C 5.17 g/m*3 -0.69 C 20.9 km/h
433 03-12-2021 12:00:00 3.7 C 5.17 g/m*3 0.82 C 11.3 km/h
434 03-12-2021 12:05:00 3.8 C 5.21 g/m*3 0.1 C 16.1 km/h
435 03-12-2021 12:10:00 3.8 C 5.21 g/m*3 0.63 C 12.9 km/h
436 03-12-2021 12:15:00 3.8 C 5.21 g/m*3 -0.75 C 22.5 km/h
437 03-12-2021 12:20:00 3.8 C 5.21 g/m*3 -0.56 C 20.9 km/h
438 03-12-2021 12:25:00 3.8 C 5.21 g/m*3 -0.56 C 20.9 km/h
439 03-12-2021 12:30:00 3.8 C 5.21 g/m*3 -0.75 C 22.5 km/h
440 03-12-2021 12:35:00 3.8 C 5.21 g/m*3 0.1 C 16.1 km/h
441 03-12-2021 12:40:00 3.8 C 5.21 g/m*3 0.35 C 14.5 km/h
442 03-12-2021 12:45:00 3.8 C 5.21 g/m*3 0.1 C 16.1 km/h
443 03-12-2021 12:50:00 3.8 C 5.21 g/m*3 -0.14 C 17.7 km/h
444 03-12-2021 12:55:00 3.8 C 5.21 g/m*3 0.35 C 14.5 km/h
445 03-12-2021 13:00:00 3.8 C 5.21 g/m*3 0.94 C 11.3 km/h
446 03-12-2021 13:05:00 3.8 C 5.21 g/m*3 0.1 C 16.1 km/h
447 03-12-2021 13:10:00 3.9 C 5.24 g/m*3 -0.62 C 22.5 km/h
448 03-12-2021 13:15:00 3.8 C 5.21 g/m*3 0.35 C 14.5 km/h
449 03-12-2021 13:20:00 3.8 C 5.21 g/m*3 0.35 C 14.5 km/h
450 03-12-2021 13:25:00 3.8 C 5.21 g/m*3 0.63 C 12.9 km/h
Sensor: Nr:Datum:Temp:Abs-Feuchte:Windchill:Wind:
Aussen-T/F 451 03-12-2021 13:30:00 3.9 C 5.24 g/m*3 1.41 C 9.7 km/h
452 03-12-2021 13:35:00 3.9 C 5.24 g/m*3 -0.01 C 17.7 km/h
453 03-12-2021 13:40:00 3.9 C 5.24 g/m*3 -0.43 C 20.9 km/h
454 03-12-2021 13:45:00 3.9 C 5.18 g/m*3 -0.01 C 17.7 km/h
455 03-12-2021 13:50:00 3.9 C 5.18 g/m*3 -0.62 C 22.5 km/h
456 03-12-2021 13:55:00 4 C 5.21 g/m*3 0.6 C 14.5 km/h
457 03-12-2021 14:00:00 4 C 5.21 g/m*3 0.34 C 16.1 km/h
458 03-12-2021 14:05:00 4.1 C 5.31 g/m*3 1 C 12.9 km/h
459 03-12-2021 14:10:00 4.1 C 5.25 g/m*3 0.24 C 17.7 km/h
460 03-12-2021 14:15:00 4 C 5.21 g/m*3 0.34 C 16.1 km/h
461 03-12-2021 14:20:00 4 C 5.21 g/m*3 0.6 C 14.5 km/h
462 03-12-2021 14:25:00 4 C 5.21 g/m*3 -0.11 C 19.3 km/h
463 03-12-2021 14:30:00 4 C 5.21 g/m*3 0.34 C 16.1 km/h
464 03-12-2021 14:35:00 3.9 C 5.18 g/m*3 0.22 C 16.1 km/h
465 03-12-2021 14:40:00 3.9 C 5.18 g/m*3 0.22 C 16.1 km/h
466 03-12-2021 14:45:00 3.9 C 5.24 g/m*3 1.06 C 11.3 km/h
467 03-12-2021 14:50:00 3.9 C 5.24 g/m*3 -0.01 C 17.7 km/h
468 03-12-2021 14:55:00 3.9 C 5.24 g/m*3 0.75 C 12.9 km/h
469 03-12-2021 15:00:00 3.9 C 5.24 g/m*3 0.47 C 14.5 km/h
470 03-12-2021 15:05:00 3.9 C 5.24 g/m*3 0.22 C 16.1 km/h
471 03-12-2021 15:10:00 3.9 C 5.24 g/m*3 1.41 C 9.7 km/h
472 03-12-2021 15:15:00 3.8 C 5.14 g/m*3 0.63 C 12.9 km/h
473 03-12-2021 15:20:00 3.8 C 5.21 g/m*3 0.63 C 12.9 km/h
474 03-12-2021 15:25:00 3.8 C 5.21 g/m*3 -0.14 C 17.7 km/h
475 03-12-2021 15:30:00 3.8 C 5.21 g/m*3 -1.1 C 25.7 km/h
Sensor: Nr:Datum:Temp:Abs-Feuchte:Windchill:Wind:
Aussen-T/F 476 03-12-2021 15:35:00 3.8 C 5.21 g/m*3 0.35 C 14.5 km/h
477 03-12-2021 15:40:00 3.8 C 5.21 g/m*3 0.94 C 11.3 km/h
478 03-12-2021 15:45:00 3.8 C 5.21 g/m*3 -0.56 C 20.9 km/h
479 03-12-2021 15:50:00 3.8 C 5.21 g/m*3 -0.56 C 20.9 km/h
480 03-12-2021 15:55:00 3.8 C 5.21 g/m*3 -0.14 C 17.7 km/h
481 03-12-2021 16:00:00 3.8 C 5.21 g/m*3 -0.36 C 19.3 km/h
482 03-12-2021 16:05:00 3.8 C 5.21 g/m*3 0.1 C 16.1 km/h
483 03-12-2021 16:10:00 3.8 C 5.21 g/m*3 0.35 C 14.5 km/h
484 03-12-2021 16:15:00 3.8 C 5.21 g/m*3 0.63 C 12.9 km/h
485 03-12-2021 16:20:00 3.8 C 5.21 g/m*3 0.1 C 16.1 km/h
486 03-12-2021 16:25:00 3.8 C 5.21 g/m*3 0.1 C 16.1 km/h
487 03-12-2021 16:30:00 3.8 C 5.21 g/m*3 0.94 C 11.3 km/h
488 03-12-2021 16:35:00 3.8 C 5.21 g/m*3 0.1 C 16.1 km/h
489 03-12-2021 16:40:00 3.8 C 5.21 g/m*3 -0.36 C 19.3 km/h
490 03-12-2021 16:45:00 3.8 C 5.21 g/m*3 1.29 C 9.7 km/h
491 03-12-2021 16:50:00 3.8 C 5.21 g/m*3 3.8 C 4.8 km/h
492 03-12-2021 16:55:00 3.8 C 5.21 g/m*3 1.7 C 8.1 km/h
493 03-12-2021 17:00:00 3.8 C 5.27 g/m*3 1.7 C 8.1 km/h
494 03-12-2021 17:05:00 3.8 C 5.27 g/m*3 3.8 C 3.2 km/h
495 03-12-2021 17:10:00 3.7 C 5.23 g/m*3 1.18 C 9.7 km/h
496 03-12-2021 17:15:00 3.7 C 5.23 g/m*3 2.09 C 6.4 km/h
497 03-12-2021 17:20:00 3.7 C 5.23 g/m*3 2.09 C 6.4 km/h
498 03-12-2021 17:25:00 3.7 C 5.3 g/m*3 3.7 C 1.6 km/h
499 03-12-2021 17:30:00 3.7 C 5.3 g/m*3 1.58 C 8.1 km/h
500 03-12-2021 17:35:00 3.7 C 5.3 g/m*3 3.7 C 4.8 km/h
Sensor: Nr:Datum:Temp:Abs-Feuchte:Windchill:Wind:
Aussen-T/F 501 03-12-2021 17:40:00 3.7 C 5.3 g/m*3 1.58 C 8.1 km/h
502 03-12-2021 17:45:00 3.7 C 5.3 g/m*3 2.09 C 6.4 km/h
503 03-12-2021 17:50:00 3.7 C 5.3 g/m*3 2.09 C 6.4 km/h
504 03-12-2021 17:55:00 3.7 C 5.3 g/m*3 2.09 C 6.4 km/h
505 03-12-2021 18:00:00 3.7 C 5.3 g/m*3 1.58 C 8.1 km/h
506 03-12-2021 18:05:00 3.7 C 5.23 g/m*3 1.58 C 8.1 km/h
507 03-12-2021 18:10:00 3.8 C 5.27 g/m*3 0.94 C 11.3 km/h
508 03-12-2021 18:15:00 3.8 C 5.21 g/m*3 3.8 C 4.8 km/h
509 03-12-2021 18:20:00 3.9 C 5.24 g/m*3 1.41 C 9.7 km/h
510 03-12-2021 18:25:00 3.9 C 5.24 g/m*3 2.32 C 6.4 km/h
511 03-12-2021 18:30:00 3.9 C 5.24 g/m*3 1.82 C 8.1 km/h
512 03-12-2021 18:35:00 4 C 5.28 g/m*3 0.88 C 12.9 km/h
513 03-12-2021 18:40:00 4 C 5.28 g/m*3 4 C 3.2 km/h
514 03-12-2021 18:45:00 4 C 5.28 g/m*3 4 C 3.2 km/h
515 03-12-2021 18:50:00 4 C 5.28 g/m*3 1.93 C 8.1 km/h
516 03-12-2021 18:55:00 4 C 5.28 g/m*3 2.44 C 6.4 km/h
517 03-12-2021 19:00:00 4.1 C 5.31 g/m*3 4.1 C 4.8 km/h
518 03-12-2021 19:05:00 4 C 5.28 g/m*3 4 C 4.8 km/h
519 03-12-2021 19:10:00 4 C 5.28 g/m*3 2.44 C 6.4 km/h
520 03-12-2021 19:15:00 4 C 5.28 g/m*3 2.44 C 6.4 km/h
521 03-12-2021 19:20:00 4 C 5.34 g/m*3 2.44 C 6.4 km/h
522 03-12-2021 19:25:00 4 C 5.34 g/m*3 4 C 1.6 km/h
523 03-12-2021 19:30:00 4 C 5.28 g/m*3 4 C 4.8 km/h
524 03-12-2021 19:35:00 3.9 C 5.31 g/m*3 3.9 C 0 km/h
525 03-12-2021 19:40:00 4 C 5.34 g/m*3 2.44 C 6.4 km/h
Sensor: Nr:Datum:Temp:Abs-Feuchte:Windchill:Wind:
Aussen-T/F 526 03-12-2021 19:45:00 3.9 C 5.37 g/m*3 3.9 C 1.6 km/h
527 03-12-2021 19:50:00 3.9 C 5.43 g/m*3 3.9 C 4.8 km/h
528 03-12-2021 19:55:00 3.8 C 5.33 g/m*3 1.7 C 8.1 km/h
529 03-12-2021 20:00:00 3.8 C 5.4 g/m*3 3.8 C 4.8 km/h
530 03-12-2021 20:05:00 3.8 C 5.4 g/m*3 3.8 C 1.6 km/h
531 03-12-2021 20:10:00 3.8 C 5.46 g/m*3 3.8 C 0 km/h
532 03-12-2021 20:15:00 3.8 C 5.46 g/m*3 3.8 C 0 km/h
533 03-12-2021 20:20:00 3.7 C 5.36 g/m*3 0.51 C 12.9 km/h
534 03-12-2021 20:25:00 3.7 C 5.36 g/m*3 1.58 C 8.1 km/h
535 03-12-2021 20:30:00 3.8 C 5.4 g/m*3 2.21 C 6.4 km/h
536 03-12-2021 20:35:00 3.8 C 5.4 g/m*3 2.21 C 6.4 km/h
537 03-12-2021 20:40:00 3.8 C 5.4 g/m*3 2.21 C 6.4 km/h
538 03-12-2021 20:45:00 3.9 C 5.43 g/m*3 1.06 C 11.3 km/h
539 03-12-2021 20:50:00 3.9 C 5.43 g/m*3 3.9 C 4.8 km/h
540 03-12-2021 20:55:00 3.9 C 5.43 g/m*3 3.9 C 3.2 km/h
541 03-12-2021 21:00:00 3.9 C 5.43 g/m*3 3.9 C 1.6 km/h
542 03-12-2021 21:05:00 3.9 C 5.43 g/m*3 1.06 C 11.3 km/h
543 03-12-2021 21:10:00 4 C 5.47 g/m*3 4 C 1.6 km/h
544 03-12-2021 21:15:00 4 C 5.47 g/m*3 1.18 C 11.3 km/h
545 03-12-2021 21:20:00 4.1 C 5.44 g/m*3 1.65 C 9.7 km/h
546 03-12-2021 21:25:00 4.1 C 5.5 g/m*3 2.05 C 8.1 km/h
547 03-12-2021 21:30:00 4.1 C 5.5 g/m*3 4.1 C 0 km/h
548 03-12-2021 21:35:00 4.1 C 5.5 g/m*3 2.05 C 8.1 km/h
549 03-12-2021 21:40:00 4.1 C 5.5 g/m*3 1.31 C 11.3 km/h
550 03-12-2021 21:45:00 4.2 C 5.54 g/m*3 4.2 C 1.6 km/h
Sensor: Nr:Datum:Temp:Abs-Feuchte:Windchill:Wind:
Aussen-T/F 551 03-12-2021 21:50:00 4.2 C 5.54 g/m*3 4.2 C 3.2 km/h
552 03-12-2021 21:55:00 4.2 C 5.54 g/m*3 1.77 C 9.7 km/h
553 03-12-2021 22:00:00 4.2 C 5.54 g/m*3 4.2 C 3.2 km/h
554 03-12-2021 22:05:00 4.2 C 5.54 g/m*3 4.2 C 4.8 km/h
555 03-12-2021 22:10:00 4.2 C 5.54 g/m*3 4.2 C 3.2 km/h
556 03-12-2021 22:15:00 4.3 C 5.58 g/m*3 4.3 C 1.6 km/h
557 03-12-2021 22:20:00 4.3 C 5.58 g/m*3 4.3 C 3.2 km/h
558 03-12-2021 22:25:00 4.3 C 5.58 g/m*3 2.29 C 8.1 km/h
559 03-12-2021 22:30:00 4.3 C 5.58 g/m*3 1.89 C 9.7 km/h
560 03-12-2021 22:35:00 4.4 C 5.62 g/m*3 2.4 C 8.1 km/h
561 03-12-2021 22:40:00 4.4 C 5.62 g/m*3 4.4 C 4.8 km/h
562 03-12-2021 22:45:00 4.4 C 5.62 g/m*3 4.4 C 1.6 km/h
563 03-12-2021 22:50:00 4.4 C 5.62 g/m*3 4.4 C 3.2 km/h
564 03-12-2021 22:55:00 4.4 C 5.62 g/m*3 4.4 C 3.2 km/h
565 03-12-2021 23:00:00 4.4 C 5.62 g/m*3 4.4 C 4.8 km/h
566 03-12-2021 23:05:00 4.4 C 5.62 g/m*3 2.9 C 6.4 km/h
567 03-12-2021 23:10:00 4.4 C 5.62 g/m*3 4.4 C 4.8 km/h
568 03-12-2021 23:15:00 4.4 C 5.68 g/m*3 4.4 C 4.8 km/h
569 03-12-2021 23:20:00 4.4 C 5.62 g/m*3 2.9 C 6.4 km/h
570 03-12-2021 23:25:00 4.4 C 5.68 g/m*3 4.4 C 4.8 km/h
571 03-12-2021 23:30:00 4.4 C 5.68 g/m*3 2.01 C 9.7 km/h
572 03-12-2021 23:35:00 4.5 C 5.72 g/m*3 3.02 C 6.4 km/h
573 03-12-2021 23:40:00 4.5 C 5.72 g/m*3 1.79 C 11.3 km/h
574 03-12-2021 23:45:00 4.5 C 5.65 g/m*3 2.13 C 9.7 km/h
575 03-12-2021 23:50:00 4.6 C 5.69 g/m*3 3.13 C 6.4 km/h
Sensor: Nr:Datum:Temp:Abs-Feuchte:Windchill:Wind:
Aussen-T/F 576 03-12-2021 23:55:00 4.6 C 5.69 g/m*3 4.6 C 4.8 km/h
577 04-12-2021 00:00:00 4.6 C 5.69 g/m*3 3.13 C 6.4 km/h
578 04-12-2021 00:05:00 4.6 C 5.69 g/m*3 2.64 C 8.1 km/h
579 04-12-2021 00:10:00 4.6 C 5.69 g/m*3 4.6 C 4.8 km/h
580 04-12-2021 00:15:00 4.6 C 5.69 g/m*3 4.6 C 3.2 km/h
581 04-12-2021 00:20:00 4.6 C 5.76 g/m*3 4.6 C 1.6 km/h
582 04-12-2021 00:25:00 4.6 C 5.76 g/m*3 3.13 C 6.4 km/h
583 04-12-2021 00:30:00 4.6 C 5.76 g/m*3 2.64 C 8.1 km/h
584 04-12-2021 00:35:00 4.6 C 5.76 g/m*3 2.25 C 9.7 km/h
585 04-12-2021 00:40:00 4.6 C 5.76 g/m*3 3.13 C 6.4 km/h
586 04-12-2021 00:45:00 4.6 C 5.76 g/m*3 3.13 C 6.4 km/h
587 04-12-2021 00:50:00 4.6 C 5.76 g/m*3 4.6 C 4.8 km/h
588 04-12-2021 00:55:00 4.6 C 5.76 g/m*3 4.6 C 4.8 km/h
589 04-12-2021 01:00:00 4.6 C 5.82 g/m*3 4.6 C 1.6 km/h
590 04-12-2021 01:05:00 4.5 C 5.78 g/m*3 1.48 C 12.9 km/h
591 04-12-2021 01:10:00 4.5 C 5.85 g/m*3 4.5 C 4.8 km/h
592 04-12-2021 01:15:00 4.4 C 5.81 g/m*3 4.4 C 3.2 km/h
593 04-12-2021 01:20:00 4.4 C 5.88 g/m*3 4.4 C 0 km/h
594 04-12-2021 01:25:00 4.4 C 5.88 g/m*3 4.4 C 0 km/h
595 04-12-2021 01:30:00 4.3 C 5.84 g/m*3 4.3 C 0 km/h
596 04-12-2021 01:35:00 4.3 C 5.84 g/m*3 4.3 C 0 km/h
597 04-12-2021 01:40:00 4.3 C 5.9 g/m*3 4.3 C 1.6 km/h
598 04-12-2021 01:45:00 4.2 C 5.86 g/m*3 4.2 C 0 km/h
599 04-12-2021 01:50:00 4.2 C 5.86 g/m*3 4.2 C 0 km/h
600 04-12-2021 01:55:00 4.1 C 5.89 g/m*3 4.1 C 1.6 km/h
Sensor: Nr:Datum:Temp:Abs-Feuchte:Windchill:Wind:
Aussen-T/F 601 04-12-2021 02:00:00 4.1 C 5.89 g/m*3 4.1 C 0 km/h
602 04-12-2021 02:05:00 4 C 5.85 g/m*3 4 C 0 km/h
603 04-12-2021 02:10:00 3.9 C 5.81 g/m*3 3.9 C 0 km/h
604 04-12-2021 02:15:00 3.9 C 5.81 g/m*3 3.9 C 0 km/h
605 04-12-2021 02:20:00 3.9 C 5.87 g/m*3 3.9 C 0 km/h
606 04-12-2021 02:25:00 3.8 C 5.83 g/m*3 3.8 C 0 km/h
607 04-12-2021 02:30:00 3.8 C 5.83 g/m*3 3.8 C 0 km/h
608 04-12-2021 02:35:00 3.8 C 5.83 g/m*3 3.8 C 0 km/h
609 04-12-2021 02:40:00 3.8 C 5.83 g/m*3 3.8 C 0 km/h
610 04-12-2021 02:45:00 3.8 C 5.83 g/m*3 3.8 C 0 km/h
611 04-12-2021 02:50:00 3.7 C 5.8 g/m*3 3.7 C 0 km/h
612 04-12-2021 02:55:00 3.7 C 5.8 g/m*3 3.7 C 0 km/h
613 04-12-2021 03:00:00 3.7 C 5.8 g/m*3 3.7 C 0 km/h
614 04-12-2021 03:05:00 3.6 C 5.76 g/m*3 3.6 C 0 km/h
615 04-12-2021 03:10:00 3.6 C 5.82 g/m*3 3.6 C 1.6 km/h
616 04-12-2021 03:15:00 3.6 C 5.82 g/m*3 3.6 C 0 km/h
617 04-12-2021 03:20:00 3.6 C 5.82 g/m*3 3.6 C 0 km/h
618 04-12-2021 03:25:00 3.6 C 5.82 g/m*3 3.6 C 0 km/h
619 04-12-2021 03:30:00 3.5 C 5.78 g/m*3 3.5 C 0 km/h
620 04-12-2021 03:35:00 3.5 C 5.78 g/m*3 3.5 C 1.6 km/h
621 04-12-2021 03:40:00 3.5 C 5.78 g/m*3 3.5 C 0 km/h
622 04-12-2021 03:45:00 3.5 C 5.78 g/m*3 3.5 C 0 km/h
623 04-12-2021 03:50:00 3.5 C 5.78 g/m*3 3.5 C 0 km/h
624 04-12-2021 03:55:00 3.5 C 5.78 g/m*3 3.5 C 0 km/h
625 04-12-2021 04:00:00 3.5 C 5.78 g/m*3 3.5 C 0 km/h
Sensor: Nr:Datum:Temp:Abs-Feuchte:Windchill:Wind:
Aussen-T/F 626 04-12-2021 04:05:00 3.5 C 5.78 g/m*3 3.5 C 0 km/h
627 04-12-2021 04:10:00 3.5 C 5.78 g/m*3 3.5 C 0 km/h
628 04-12-2021 04:15:00 3.5 C 5.78 g/m*3 3.5 C 0 km/h
629 04-12-2021 04:20:00 3.5 C 5.78 g/m*3 3.5 C 0 km/h
630 04-12-2021 04:25:00 3.4 C 5.74 g/m*3 3.4 C 0 km/h
631 04-12-2021 04:30:00 3.4 C 5.74 g/m*3 3.4 C 0 km/h
632 04-12-2021 04:35:00 3.4 C 5.74 g/m*3 3.4 C 0 km/h
633 04-12-2021 04:40:00 3.4 C 5.74 g/m*3 3.4 C 0 km/h
634 04-12-2021 04:45:00 3.4 C 5.74 g/m*3 3.4 C 0 km/h
635 04-12-2021 04:50:00 3.4 C 5.74 g/m*3 3.4 C 0 km/h
636 04-12-2021 04:55:00 3.4 C 5.74 g/m*3 3.4 C 0 km/h
637 04-12-2021 05:00:00 3.4 C 5.74 g/m*3 3.4 C 0 km/h
638 04-12-2021 05:05:00 3.4 C 5.74 g/m*3 3.4 C 0 km/h
639 04-12-2021 05:10:00 3.4 C 5.74 g/m*3 3.4 C 0 km/h
640 04-12-2021 05:15:00 3.3 C 5.7 g/m*3 3.3 C 0 km/h
641 04-12-2021 05:20:00 3.3 C 5.7 g/m*3 3.3 C 0 km/h
642 04-12-2021 05:25:00 3.3 C 5.76 g/m*3 3.3 C 0 km/h
643 04-12-2021 05:30:00 3.3 C 5.76 g/m*3 3.3 C 0 km/h
644 04-12-2021 05:35:00 3.4 C 5.8 g/m*3 3.4 C 0 km/h
645 04-12-2021 05:40:00 3.4 C 5.8 g/m*3 3.4 C 0 km/h
646 04-12-2021 05:45:00 3.3 C 5.76 g/m*3 3.3 C 0 km/h
647 04-12-2021 05:50:00 3.3 C 5.76 g/m*3 3.3 C 0 km/h
648 04-12-2021 05:55:00 3.3 C 5.76 g/m*3 3.3 C 0 km/h
649 04-12-2021 06:00:00 3.3 C 5.76 g/m*3 3.3 C 0 km/h
650 04-12-2021 06:05:00 3.3 C 5.76 g/m*3 3.3 C 0 km/h
Sensor: Nr:Datum:Temp:Abs-Feuchte:Windchill:Wind:
Aussen-T/F 651 04-12-2021 06:10:00 3.3 C 5.76 g/m*3 3.3 C 0 km/h
652 04-12-2021 06:15:00 3.3 C 5.76 g/m*3 3.3 C 1.6 km/h
653 04-12-2021 06:20:00 3.3 C 5.76 g/m*3 3.3 C 0 km/h
654 04-12-2021 06:25:00 3.3 C 5.76 g/m*3 3.3 C 3.2 km/h
655 04-12-2021 06:30:00 3.3 C 5.76 g/m*3 3.3 C 0 km/h
656 04-12-2021 06:35:00 3.2 C 5.72 g/m*3 3.2 C 0 km/h
657 04-12-2021 06:40:00 3.2 C 5.72 g/m*3 3.2 C 0 km/h
658 04-12-2021 06:45:00 3.2 C 5.72 g/m*3 3.2 C 0 km/h
659 04-12-2021 06:50:00 3.2 C 5.72 g/m*3 3.2 C 0 km/h
660 04-12-2021 06:55:00 3.2 C 5.72 g/m*3 3.2 C 1.6 km/h
661 04-12-2021 07:00:00 3.2 C 5.72 g/m*3 3.2 C 0 km/h
662 04-12-2021 07:05:00 3.2 C 5.72 g/m*3 3.2 C 0 km/h
663 04-12-2021 07:10:00 3.2 C 5.72 g/m*3 3.2 C 1.6 km/h
664 04-12-2021 07:15:00 3.2 C 5.72 g/m*3 3.2 C 3.2 km/h
665 04-12-2021 07:20:00 3.2 C 5.72 g/m*3 3.2 C 1.6 km/h
666 04-12-2021 07:25:00 3.2 C 5.72 g/m*3 3.2 C 1.6 km/h
667 04-12-2021 07:30:00 3.2 C 5.72 g/m*3 3.2 C 1.6 km/h
668 04-12-2021 07:35:00 3.2 C 5.72 g/m*3 3.2 C 3.2 km/h
669 04-12-2021 07:40:00 3.2 C 5.72 g/m*3 3.2 C 0 km/h
670 04-12-2021 07:45:00 3.2 C 5.72 g/m*3 3.2 C 3.2 km/h
671 04-12-2021 07:50:00 3.2 C 5.72 g/m*3 3.2 C 3.2 km/h
672 04-12-2021 07:55:00 3.1 C 5.69 g/m*3 3.1 C 3.2 km/h
673 04-12-2021 08:00:00 3.1 C 5.69 g/m*3 3.1 C 3.2 km/h
674 04-12-2021 08:05:00 3.1 C 5.69 g/m*3 3.1 C 4.8 km/h
675 04-12-2021 08:10:00 3.1 C 5.69 g/m*3 1.4 C 6.4 km/h
Sensor: Nr:Datum:Temp:Abs-Feuchte:Windchill:Wind:
Aussen-T/F 676 04-12-2021 08:15:00 3.1 C 5.69 g/m*3 3.1 C 4.8 km/h
677 04-12-2021 08:20:00 3.1 C 5.69 g/m*3 3.1 C 4.8 km/h
678 04-12-2021 08:25:00 3.1 C 5.69 g/m*3 0.87 C 8.1 km/h
679 04-12-2021 08:30:00 3.1 C 5.69 g/m*3 3.1 C 3.2 km/h
680 04-12-2021 08:35:00 3.1 C 5.69 g/m*3 1.4 C 6.4 km/h
681 04-12-2021 08:40:00 3.1 C 5.69 g/m*3 3.1 C 3.2 km/h
682 04-12-2021 08:45:00 3.1 C 5.69 g/m*3 1.4 C 6.4 km/h
683 04-12-2021 08:50:00 3.1 C 5.69 g/m*3 1.4 C 6.4 km/h
684 04-12-2021 08:55:00 3.1 C 5.69 g/m*3 1.4 C 6.4 km/h
685 04-12-2021 09:00:00 3.1 C 5.69 g/m*3 0.87 C 8.1 km/h
686 04-12-2021 09:05:00 3.1 C 5.69 g/m*3 3.1 C 4.8 km/h
687 04-12-2021 09:10:00 3.1 C 5.69 g/m*3 3.1 C 4.8 km/h
688 04-12-2021 09:15:00 3.1 C 5.69 g/m*3 3.1 C 3.2 km/h
689 04-12-2021 09:20:00 3.2 C 5.72 g/m*3 3.2 C 1.6 km/h
690 04-12-2021 09:25:00 3.2 C 5.72 g/m*3 3.2 C 0 km/h
691 04-12-2021 09:30:00 3.3 C 5.76 g/m*3 3.3 C 0 km/h
692 04-12-2021 09:35:00 3.3 C 5.76 g/m*3 3.3 C 0 km/h
693 04-12-2021 09:40:00 3.4 C 5.8 g/m*3 3.4 C 0 km/h
694 04-12-2021 09:45:00 3.4 C 5.86 g/m*3 3.4 C 0 km/h
695 04-12-2021 09:50:00 3.5 C 5.9 g/m*3 3.5 C 0 km/h
696 04-12-2021 09:55:00 3.5 C 5.9 g/m*3 3.5 C 0 km/h
697 04-12-2021 10:00:00 3.6 C 5.88 g/m*3 3.6 C 0 km/h
698 04-12-2021 10:05:00 3.6 C 5.88 g/m*3 3.6 C 0 km/h
699 04-12-2021 10:10:00 3.6 C 5.88 g/m*3 3.6 C 0 km/h
700 04-12-2021 10:15:00 3.6 C 5.88 g/m*3 3.6 C 0 km/h
Sensor: Nr:Datum:Temp:Abs-Feuchte:Windchill:Wind:
Aussen-T/F 701 04-12-2021 10:20:00 3.7 C 5.92 g/m*3 3.7 C 0 km/h
702 04-12-2021 10:25:00 3.7 C 5.92 g/m*3 3.7 C 0 km/h
703 04-12-2021 10:30:00 3.7 C 5.92 g/m*3 3.7 C 0 km/h
704 04-12-2021 10:35:00 3.7 C 5.92 g/m*3 3.7 C 0 km/h
705 04-12-2021 10:40:00 3.7 C 5.92 g/m*3 3.7 C 0 km/h
706 04-12-2021 10:45:00 3.8 C 5.96 g/m*3 3.8 C 0 km/h
707 04-12-2021 10:50:00 3.8 C 5.96 g/m*3 3.8 C 0 km/h
708 04-12-2021 10:55:00 3.8 C 5.96 g/m*3 3.8 C 0 km/h
709 04-12-2021 11:00:00 3.8 C 5.96 g/m*3 3.8 C 0 km/h
710 04-12-2021 11:05:00 3.8 C 5.96 g/m*3 3.8 C 0 km/h
711 04-12-2021 11:10:00 3.9 C 6 g/m*3 3.9 C 0 km/h
712 04-12-2021 11:15:00 3.9 C 6 g/m*3 3.9 C 0 km/h
713 04-12-2021 11:20:00 3.9 C 6 g/m*3 3.9 C 0 km/h
714 04-12-2021 11:25:00 3.9 C 6 g/m*3 3.9 C 0 km/h
715 04-12-2021 11:30:00 4 C 6.04 g/m*3 4 C 0 km/h
716 04-12-2021 11:35:00 4.1 C 6.08 g/m*3 4.1 C 0 km/h
717 04-12-2021 11:40:00 4.1 C 6.08 g/m*3 4.1 C 0 km/h
718 04-12-2021 11:45:00 4.2 C 6.12 g/m*3 4.2 C 0 km/h
719 04-12-2021 11:50:00 4.3 C 6.16 g/m*3 4.3 C 0 km/h
720 04-12-2021 11:55:00 4.3 C 6.16 g/m*3 4.3 C 0 km/h
721 04-12-2021 12:00:00 4.3 C 6.16 g/m*3 4.3 C 0 km/h
722 04-12-2021 12:05:00 4.4 C 6.2 g/m*3 4.4 C 0 km/h
723 04-12-2021 12:10:00 4.4 C 6.2 g/m*3 4.4 C 0 km/h
724 04-12-2021 12:15:00 4.5 C 6.24 g/m*3 4.5 C 0 km/h
725 04-12-2021 12:20:00 4.6 C 6.29 g/m*3 4.6 C 0 km/h
Sensor: Nr:Datum:Temp:Abs-Feuchte:Windchill:Wind:
Aussen-T/F 726 04-12-2021 12:25:00 4.6 C 6.29 g/m*3 4.6 C 0 km/h
727 04-12-2021 12:30:00 4.7 C 6.33 g/m*3 4.7 C 0 km/h
728 04-12-2021 12:35:00 4.7 C 6.33 g/m*3 2.76 C 8.1 km/h
729 04-12-2021 12:40:00 4.8 C 6.37 g/m*3 4.8 C 3.2 km/h
730 04-12-2021 12:45:00 4.9 C 6.41 g/m*3 4.9 C 3.2 km/h
731 04-12-2021 12:50:00 5 C 6.39 g/m*3 5 C 1.6 km/h
732 04-12-2021 12:55:00 5.1 C 6.43 g/m*3 5.1 C 1.6 km/h
733 04-12-2021 13:00:00 5.1 C 6.43 g/m*3 5.1 C 1.6 km/h
734 04-12-2021 13:05:00 5.1 C 6.43 g/m*3 5.1 C 0 km/h
735 04-12-2021 13:10:00 5.2 C 6.47 g/m*3 5.2 C 3.2 km/h
736 04-12-2021 13:15:00 5.2 C 6.47 g/m*3 5.2 C 0 km/h
737 04-12-2021 13:20:00 5.2 C 6.47 g/m*3 5.2 C 0 km/h
738 04-12-2021 13:25:00 5.2 C 6.47 g/m*3 5.2 C 3.2 km/h
739 04-12-2021 13:30:00 5.3 C 6.45 g/m*3 5.3 C 1.6 km/h
740 04-12-2021 13:35:00 5.3 C 6.45 g/m*3 5.3 C 4.8 km/h
741 04-12-2021 13:40:00 5.3 C 6.45 g/m*3 5.3 C 0 km/h
742 04-12-2021 13:45:00 5.3 C 6.45 g/m*3 5.3 C 3.2 km/h
743 04-12-2021 13:50:00 5.3 C 6.45 g/m*3 5.3 C 0 km/h
744 04-12-2021 13:55:00 5.3 C 6.45 g/m*3 5.3 C 4.8 km/h
745 04-12-2021 14:00:00 5.3 C 6.45 g/m*3 5.3 C 3.2 km/h
746 04-12-2021 14:05:00 5.3 C 6.45 g/m*3 5.3 C 3.2 km/h
747 04-12-2021 14:10:00 5.2 C 6.4 g/m*3 3.82 C 6.4 km/h
748 04-12-2021 14:15:00 5.1 C 6.36 g/m*3 3.23 C 8.1 km/h
749 04-12-2021 14:20:00 5.1 C 6.36 g/m*3 5.1 C 4.8 km/h
750 04-12-2021 14:25:00 4.9 C 6.28 g/m*3 4.9 C 4.8 km/h
Sensor: Nr:Datum:Temp:Abs-Feuchte:Windchill:Wind:
Aussen-T/F 751 04-12-2021 14:30:00 4.9 C 6.35 g/m*3 4.9 C 1.6 km/h
752 04-12-2021 14:35:00 4.9 C 6.35 g/m*3 2.99 C 8.1 km/h
753 04-12-2021 14:40:00 4.8 C 6.3 g/m*3 3.36 C 6.4 km/h
754 04-12-2021 14:45:00 4.9 C 6.35 g/m*3 4.9 C 4.8 km/h
755 04-12-2021 14:50:00 4.9 C 6.35 g/m*3 4.9 C 4.8 km/h
756 04-12-2021 14:55:00 4.9 C 6.41 g/m*3 4.9 C 1.6 km/h
757 04-12-2021 15:00:00 5 C 6.46 g/m*3 5 C 0 km/h
758 04-12-2021 15:05:00 5.1 C 6.5 g/m*3 5.1 C 1.6 km/h
759 04-12-2021 15:10:00 5.1 C 6.5 g/m*3 5.1 C 0 km/h
760 04-12-2021 15:15:00 5.2 C 6.54 g/m*3 5.2 C 0 km/h
761 04-12-2021 15:20:00 5.2 C 6.54 g/m*3 5.2 C 4.8 km/h
762 04-12-2021 15:25:00 5.2 C 6.47 g/m*3 5.2 C 3.2 km/h
763 04-12-2021 15:30:00 5.2 C 6.54 g/m*3 5.2 C 1.6 km/h
764 04-12-2021 15:35:00 5.2 C 6.54 g/m*3 5.2 C 1.6 km/h
765 04-12-2021 15:40:00 5.1 C 6.43 g/m*3 5.1 C 0 km/h
766 04-12-2021 15:45:00 5.1 C 6.43 g/m*3 5.1 C 0 km/h
767 04-12-2021 15:50:00 5.1 C 6.43 g/m*3 5.1 C 1.6 km/h
768 04-12-2021 15:55:00 5.1 C 6.5 g/m*3 5.1 C 3.2 km/h
769 04-12-2021 16:00:00 5.1 C 6.5 g/m*3 5.1 C 0 km/h
770 04-12-2021 16:05:00 5 C 6.46 g/m*3 5 C 0 km/h
771 04-12-2021 16:10:00 5 C 6.46 g/m*3 5 C 0 km/h
772 04-12-2021 16:15:00 5 C 6.46 g/m*3 5 C 0 km/h
773 04-12-2021 16:20:00 5 C 6.46 g/m*3 5 C 0 km/h
774 04-12-2021 16:25:00 5 C 6.46 g/m*3 5 C 4.8 km/h
775 04-12-2021 16:30:00 5 C 6.46 g/m*3 3.59 C 6.4 km/h
Sensor: Nr:Datum:Temp:Abs-Feuchte:Windchill:Wind:
Aussen-T/F 776 04-12-2021 16:35:00 5 C 6.46 g/m*3 5 C 4.8 km/h
777 04-12-2021 16:40:00 5 C 6.46 g/m*3 3.11 C 8.1 km/h
778 04-12-2021 16:45:00 5.1 C 6.57 g/m*3 5.1 C 4.8 km/h
779 04-12-2021 16:50:00 5.1 C 6.57 g/m*3 5.1 C 3.2 km/h
780 04-12-2021 16:55:00 5.1 C 6.5 g/m*3 5.1 C 3.2 km/h
781 04-12-2021 17:00:00 5.1 C 6.5 g/m*3 3.71 C 6.4 km/h
782 04-12-2021 17:05:00 5.1 C 6.57 g/m*3 5.1 C 3.2 km/h
783 04-12-2021 17:10:00 5.1 C 6.57 g/m*3 5.1 C 3.2 km/h
784 04-12-2021 17:15:00 5.2 C 6.61 g/m*3 5.2 C 3.2 km/h
785 04-12-2021 17:20:00 5.2 C 6.61 g/m*3 5.2 C 4.8 km/h
786 04-12-2021 17:25:00 5.2 C 6.61 g/m*3 2.96 C 9.7 km/h
787 04-12-2021 17:30:00 5.4 C 6.7 g/m*3 3.58 C 8.1 km/h
788 04-12-2021 17:35:00 5.4 C 6.7 g/m*3 5.4 C 4.8 km/h
789 04-12-2021 17:40:00 5.5 C 6.74 g/m*3 3.7 C 8.1 km/h
790 04-12-2021 17:45:00 5.6 C 6.79 g/m*3 3.81 C 8.1 km/h
791 04-12-2021 17:50:00 5.6 C 6.79 g/m*3 3.44 C 9.7 km/h
792 04-12-2021 17:55:00 5.6 C 6.79 g/m*3 2.83 C 12.9 km/h
793 04-12-2021 18:00:00 5.5 C 6.74 g/m*3 2.99 C 11.3 km/h
794 04-12-2021 18:05:00 5.5 C 6.67 g/m*3 3.32 C 9.7 km/h
795 04-12-2021 18:10:00 5.4 C 6.63 g/m*3 2.08 C 16.1 km/h
796 04-12-2021 18:15:00 5.4 C 6.63 g/m*3 3.2 C 9.7 km/h
797 04-12-2021 18:20:00 5.4 C 6.63 g/m*3 2.08 C 16.1 km/h
798 04-12-2021 18:25:00 5.4 C 6.56 g/m*3 2.08 C 16.1 km/h
799 04-12-2021 18:30:00 5.4 C 6.49 g/m*3 2.58 C 12.9 km/h
800 04-12-2021 18:35:00 5.4 C 6.49 g/m*3 3.2 C 9.7 km/h
Sensor: Nr:Datum:Temp:Abs-Feuchte:Windchill:Wind:
Aussen-T/F 801 04-12-2021 18:40:00 5.4 C 6.49 g/m*3 2.58 C 12.9 km/h
802 04-12-2021 18:45:00 5.5 C 6.53 g/m*3 2.99 C 11.3 km/h
803 04-12-2021 18:50:00 5.5 C 6.46 g/m*3 2.99 C 11.3 km/h
804 04-12-2021 18:55:00 5.4 C 6.42 g/m*3 2.08 C 16.1 km/h
805 04-12-2021 19:00:00 5.4 C 6.42 g/m*3 2.32 C 14.5 km/h
806 04-12-2021 19:05:00 5.4 C 6.42 g/m*3 2.08 C 16.1 km/h
807 04-12-2021 19:10:00 5.5 C 6.39 g/m*3 1.99 C 17.7 km/h
808 04-12-2021 19:15:00 5.5 C 6.39 g/m*3 2.44 C 14.5 km/h
809 04-12-2021 19:20:00 5.6 C 6.43 g/m*3 2.57 C 14.5 km/h
810 04-12-2021 19:25:00 5.6 C 6.43 g/m*3 2.11 C 17.7 km/h
811 04-12-2021 19:30:00 5.5 C 6.39 g/m*3 2.44 C 14.5 km/h
812 04-12-2021 19:35:00 5.5 C 6.39 g/m*3 2.99 C 11.3 km/h
813 04-12-2021 19:40:00 5.5 C 6.39 g/m*3 2.99 C 11.3 km/h
814 04-12-2021 19:45:00 5.5 C 6.39 g/m*3 2.44 C 14.5 km/h
815 04-12-2021 19:50:00 5.6 C 6.43 g/m*3 3.11 C 11.3 km/h
816 04-12-2021 19:55:00 5.6 C 6.43 g/m*3 3.44 C 9.7 km/h
817 04-12-2021 20:00:00 5.6 C 6.36 g/m*3 3.44 C 9.7 km/h
818 04-12-2021 20:05:00 5.6 C 6.36 g/m*3 2.83 C 12.9 km/h
819 04-12-2021 20:10:00 5.6 C 6.29 g/m*3 2.57 C 14.5 km/h
820 04-12-2021 20:15:00 5.5 C 6.25 g/m*3 1.99 C 17.7 km/h
821 04-12-2021 20:20:00 5.5 C 6.18 g/m*3 1.78 C 19.3 km/h
822 04-12-2021 20:25:00 5.5 C 6.11 g/m*3 2.2 C 16.1 km/h
823 04-12-2021 20:30:00 5.4 C 6 g/m*3 2.87 C 11.3 km/h
824 04-12-2021 20:35:00 5.3 C 5.96 g/m*3 2.46 C 12.9 km/h
825 04-12-2021 20:40:00 5.3 C 5.96 g/m*3 3.08 C 9.7 km/h
Sensor: Nr:Datum:Temp:Abs-Feuchte:Windchill:Wind:
Aussen-T/F 826 04-12-2021 20:45:00 5.2 C 5.99 g/m*3 5.2 C 3.2 km/h
827 04-12-2021 20:50:00 5.1 C 6.02 g/m*3 3.23 C 8.1 km/h
828 04-12-2021 20:55:00 5 C 5.98 g/m*3 3.11 C 8.1 km/h
829 04-12-2021 21:00:00 4.8 C 5.9 g/m*3 2.87 C 8.1 km/h
830 04-12-2021 21:05:00 4.7 C 5.93 g/m*3 2.76 C 8.1 km/h
831 04-12-2021 21:10:00 4.6 C 5.89 g/m*3 2.25 C 9.7 km/h
832 04-12-2021 21:15:00 4.6 C 5.89 g/m*3 1.91 C 11.3 km/h
833 04-12-2021 21:20:00 4.6 C 5.89 g/m*3 2.64 C 8.1 km/h
834 04-12-2021 21:25:00 4.4 C 5.81 g/m*3 1.67 C 11.3 km/h
835 04-12-2021 21:30:00 4.4 C 5.81 g/m*3 2.01 C 9.7 km/h
836 04-12-2021 21:35:00 4.3 C 5.77 g/m*3 2.29 C 8.1 km/h
837 04-12-2021 21:40:00 4.2 C 5.8 g/m*3 1.77 C 9.7 km/h
838 04-12-2021 21:45:00 4.2 C 5.8 g/m*3 1.43 C 11.3 km/h
839 04-12-2021 21:50:00 4.2 C 5.8 g/m*3 1.77 C 9.7 km/h
840 04-12-2021 21:55:00 4.1 C 5.76 g/m*3 1.65 C 9.7 km/h
841 04-12-2021 22:00:00 4.1 C 5.76 g/m*3 1.31 C 11.3 km/h
842 04-12-2021 22:05:00 4 C 5.72 g/m*3 0.6 C 14.5 km/h
843 04-12-2021 22:10:00 4 C 5.72 g/m*3 1.93 C 8.1 km/h
844 04-12-2021 22:15:00 4 C 5.72 g/m*3 1.18 C 11.3 km/h
845 04-12-2021 22:20:00 4 C 5.79 g/m*3 1.93 C 8.1 km/h
846 04-12-2021 22:25:00 4 C 5.79 g/m*3 1.53 C 9.7 km/h
847 04-12-2021 22:30:00 4.1 C 5.82 g/m*3 1.65 C 9.7 km/h
848 04-12-2021 22:35:00 4.1 C 5.82 g/m*3 1.31 C 11.3 km/h
849 04-12-2021 22:40:00 4.2 C 5.8 g/m*3 0.84 C 14.5 km/h
850 04-12-2021 22:45:00 4.2 C 5.8 g/m*3 1.43 C 11.3 km/h
Sensor: Nr:Datum:Temp:Abs-Feuchte:Windchill:Wind:
Aussen-T/F 851 04-12-2021 22:50:00 4.1 C 5.76 g/m*3 2.05 C 8.1 km/h
852 04-12-2021 22:55:00 3.9 C 5.68 g/m*3 0.47 C 14.5 km/h
853 04-12-2021 23:00:00 3.8 C 5.65 g/m*3 0.94 C 11.3 km/h
854 04-12-2021 23:05:00 3.9 C 5.68 g/m*3 0.75 C 12.9 km/h
855 04-12-2021 23:10:00 3.8 C 5.65 g/m*3 1.7 C 8.1 km/h
856 04-12-2021 23:15:00 3.8 C 5.65 g/m*3 1.29 C 9.7 km/h
857 04-12-2021 23:20:00 3.7 C 5.61 g/m*3 1.18 C 9.7 km/h
858 04-12-2021 23:25:00 3.7 C 5.67 g/m*3 1.18 C 9.7 km/h
859 04-12-2021 23:30:00 3.6 C 5.63 g/m*3 3.6 C 3.2 km/h
860 04-12-2021 23:35:00 3.4 C 5.56 g/m*3 1.23 C 8.1 km/h
861 04-12-2021 23:40:00 3.3 C 5.52 g/m*3 3.3 C 4.8 km/h
862 04-12-2021 23:45:00 3.3 C 5.52 g/m*3 3.3 C 4.8 km/h
863 04-12-2021 23:50:00 3.3 C 5.58 g/m*3 3.3 C 3.2 km/h
864 04-12-2021 23:55:00 3.3 C 5.58 g/m*3 1.11 C 8.1 km/h

Legende:
   Min
   Max


Maximal/Minimal-Werte vom 02.12.2021 - 04.12.2021

Sensor Min Max Avg
Temp
(Aussen-T/F)
-0.2 °C
03-12-2021  05:00:00
5.6 °C
04-12-2021  17:45:00
3.64 °C
Abs-Feuchte
(Aussen-T/F)
4.44 g/m*3
03-12-2021  05:00:00
6.79 g/m*3
04-12-2021  17:45:00
5.64 g/m*3
Windchill
(Aussen-T/F)
-3 C
03-12-2021  04:15:00
5.4 C
04-12-2021  17:35:00
2.3 C

Die Daten stammen von einer Davis Vantage Pro 2 Wetter-Station und werden unter Linux mit der Software wview2wettercgi und aufbereitet. Alle Angaben erfolgen ohne Gewähr für ihre Vollständigkeit oder Richtigkeit.
Kontakt: Rainer Krienke krienke@uni-koblenz.de . Meine Webseiten an der Uni Koblenz oder privat.
Version: $Revision: 0.78 $